createdAt,value
2019-03-08T00:01:17.996Z,0.93
2019-03-08T00:03:48.525Z,0.90
2019-03-08T00:06:18.964Z,0.97
2019-03-08T00:08:49.592Z,0.93
2019-03-08T00:11:20.024Z,0.87
2019-03-08T00:13:50.520Z,1.10
2019-03-08T00:16:20.953Z,0.90
2019-03-08T00:18:51.462Z,0.83
2019-03-08T00:21:22.148Z,0.80
2019-03-08T00:23:52.616Z,1.10
2019-03-08T00:26:23.366Z,0.97
2019-03-08T00:28:55.145Z,0.97
2019-03-08T00:31:25.789Z,0.70
2019-03-08T00:33:56.838Z,0.90
2019-03-08T00:36:27.260Z,1.10
2019-03-08T00:38:57.747Z,0.90
2019-03-08T00:41:28.576Z,1.20
2019-03-08T00:43:59.685Z,0.93
2019-03-08T00:46:30.385Z,0.80
2019-03-08T00:49:00.817Z,1.07
2019-03-08T00:51:31.244Z,0.83
2019-03-08T00:54:01.697Z,0.83
2019-03-08T00:56:32.498Z,1.00
2019-03-08T00:59:03.325Z,1.10
2019-03-08T01:01:33.762Z,0.93
2019-03-08T01:04:04.228Z,1.10
2019-03-08T01:06:36.816Z,0.90
2019-03-08T01:09:08.350Z,0.93
2019-03-08T01:11:40.448Z,1.07
2019-03-08T01:14:10.904Z,1.13
2019-03-08T01:16:41.341Z,1.10
2019-03-08T01:19:12.860Z,1.10
2019-03-08T01:21:43.305Z,1.10
2019-03-08T01:24:14.779Z,1.00
2019-03-08T01:26:45.243Z,1.30
2019-03-08T01:29:15.963Z,0.80
2019-03-08T01:31:46.404Z,1.27
2019-03-08T01:34:16.888Z,1.20
2019-03-08T01:36:48.020Z,1.07
2019-03-08T01:39:18.885Z,1.07
2019-03-08T01:41:49.332Z,0.90
2019-03-08T01:44:19.860Z,0.90
2019-03-08T01:46:50.629Z,1.20
2019-03-08T01:49:21.596Z,0.90
2019-03-08T01:51:52.094Z,1.00
2019-03-08T01:54:22.558Z,1.00
2019-03-08T01:56:53.402Z,1.00
2019-03-08T01:59:23.926Z,0.90
2019-03-08T02:01:54.658Z,0.80
2019-03-08T02:04:25.190Z,1.07
2019-03-08T02:06:55.756Z,0.80
2019-03-08T02:09:26.330Z,0.80
2019-03-08T02:11:57.221Z,0.97
2019-03-08T02:14:28.299Z,0.93
2019-03-08T02:16:58.736Z,1.03
2019-03-08T02:19:29.192Z,0.87
2019-03-08T02:21:59.644Z,0.83
2019-03-08T02:24:30.097Z,1.10
2019-03-08T02:27:00.818Z,1.10
2019-03-08T02:29:31.564Z,0.93
2019-03-08T02:32:02.313Z,1.10
2019-03-08T02:34:32.784Z,1.10
2019-03-08T02:37:03.576Z,1.10
2019-03-08T02:39:34.857Z,1.23
2019-03-08T02:42:05.319Z,1.20
2019-03-08T02:44:36.396Z,0.90
2019-03-08T02:47:06.860Z,1.03
2019-03-08T02:49:37.400Z,0.90
2019-03-08T02:52:08.604Z,0.90
2019-03-08T02:54:39.057Z,0.97
2019-03-08T02:57:09.512Z,0.90
2019-03-08T02:59:40.057Z,0.80
2019-03-08T03:02:11.598Z,1.07
2019-03-08T03:04:42.491Z,1.03
2019-03-08T03:07:12.961Z,0.90
2019-03-08T03:09:43.430Z,0.67
2019-03-08T03:12:13.905Z,1.10
2019-03-08T03:14:44.697Z,1.00
2019-03-08T03:17:15.296Z,1.20
2019-03-08T03:19:45.815Z,0.80
2019-03-08T03:22:16.258Z,0.97
2019-03-08T03:24:46.769Z,0.73
2019-03-08T03:27:17.258Z,1.00
2019-03-08T03:29:48.047Z,0.83
2019-03-08T03:32:18.489Z,0.90
2019-03-08T03:34:49.009Z,0.80
2019-03-08T03:37:19.445Z,0.80
2019-03-08T03:39:49.918Z,0.93
2019-03-08T03:42:20.472Z,0.80
2019-03-08T03:44:50.948Z,0.83
2019-03-08T03:47:21.408Z,0.53
2019-03-08T03:49:51.852Z,0.90
2019-03-08T03:52:22.344Z,1.00
2019-03-08T03:54:52.811Z,0.70
2019-03-08T03:57:23.289Z,1.37
2019-03-08T03:59:53.784Z,0.50
2019-03-08T04:02:24.705Z,0.60
2019-03-08T04:04:55.207Z,0.40
2019-03-08T04:07:26.464Z,0.50
2019-03-08T04:09:57.339Z,0.50
2019-03-08T04:12:28.184Z,0.60
2019-03-08T04:14:58.615Z,0.60
2019-03-08T04:17:29.050Z,0.47
2019-03-08T04:19:59.481Z,0.40
2019-03-08T04:22:29.923Z,0.40
2019-03-08T04:25:00.390Z,0.40
2019-03-08T04:27:42.168Z,0.40
2019-03-08T04:30:14.300Z,0.40
2019-03-08T04:32:44.776Z,0.47
2019-03-08T04:35:15.251Z,0.40
2019-03-08T04:37:45.704Z,0.50
2019-03-08T04:40:16.137Z,0.40
2019-03-08T04:42:46.563Z,0.40
2019-03-08T04:45:17.473Z,0.40
2019-03-08T04:47:48.297Z,0.50
2019-03-08T04:50:18.829Z,0.33
2019-03-08T04:52:49.272Z,0.40
2019-03-08T04:55:19.756Z,0.50
2019-03-08T04:57:50.646Z,0.40
2019-03-08T05:00:21.184Z,0.50
2019-03-08T05:02:51.736Z,0.40
2019-03-08T05:05:22.270Z,0.60
2019-03-08T05:07:52.880Z,0.47
2019-03-08T05:10:23.729Z,0.40
2019-03-08T05:12:54.184Z,0.47
2019-03-08T05:15:25.926Z,0.53
2019-03-08T05:17:58.452Z,0.40
2019-03-08T05:20:29.404Z,0.47
2019-03-08T05:23:00.093Z,0.40
2019-03-08T05:25:30.677Z,0.60
2019-03-08T05:28:01.105Z,0.50
2019-03-08T05:30:31.556Z,0.50
2019-03-08T05:33:01.977Z,0.50
2019-03-08T05:35:33.021Z,0.50
2019-03-08T05:38:03.465Z,0.40
2019-03-08T05:40:33.893Z,0.50
2019-03-08T05:43:04.332Z,0.33
2019-03-08T05:45:35.038Z,0.30
2019-03-08T05:48:05.610Z,0.40
2019-03-08T05:50:36.315Z,0.43
2019-03-08T05:53:06.772Z,0.50
2019-03-08T05:55:37.215Z,0.40
2019-03-08T05:58:07.660Z,0.57
2019-03-08T06:00:38.396Z,0.50
2019-03-08T06:03:08.905Z,0.50
2019-03-08T06:05:39.340Z,0.50
2019-03-08T06:08:09.903Z,0.50
2019-03-08T06:10:40.334Z,0.43
2019-03-08T06:13:10.812Z,0.50
2019-03-08T06:15:41.564Z,0.50
2019-03-08T06:18:11.989Z,0.50
2019-03-08T06:20:42.423Z,0.60
2019-03-08T06:23:13.953Z,0.53
2019-03-08T06:25:44.705Z,0.43
2019-03-08T06:28:15.245Z,0.60
2019-03-08T06:30:48.289Z,0.40
2019-03-08T13:21:31.312Z,1.10
2019-03-08T13:24:01.789Z,1.27
2019-03-08T13:26:32.414Z,1.20
2019-03-08T13:29:02.849Z,0.97
2019-03-08T13:31:33.342Z,1.00
2019-03-08T13:34:03.822Z,0.70
2019-03-08T13:36:34.273Z,1.00
2019-03-08T13:39:07.078Z,0.83
2019-03-08T13:41:38.674Z,0.70
2019-03-08T13:44:10.142Z,0.77
2019-03-08T13:46:40.673Z,1.10
2019-03-08T13:49:11.223Z,0.80
2019-03-08T13:51:41.940Z,0.80
2019-03-08T13:54:12.651Z,0.93
2019-03-08T13:56:43.104Z,0.70
2019-03-08T13:59:13.620Z,1.03
2019-03-08T14:01:44.077Z,0.90
2019-03-08T14:04:14.984Z,1.00
2019-03-08T14:06:45.516Z,1.37
2019-03-08T14:09:16.257Z,1.63
2019-03-08T14:11:46.713Z,1.30
2019-03-08T14:14:17.169Z,1.07
2019-03-08T14:16:48.522Z,0.90
2019-03-08T14:19:18.994Z,1.07
2019-03-08T14:21:49.535Z,1.20
2019-03-08T14:24:20.451Z,1.17
2019-03-08T14:26:50.885Z,0.97
2019-03-08T14:29:22.408Z,1.10
2019-03-08T14:32:12.336Z,0.83
2019-03-08T14:34:43.186Z,0.90
2019-03-08T14:37:16.221Z,0.80
2019-03-08T14:39:45.829Z,1.20
2019-03-08T14:42:41.817Z,0.97
2019-03-08T14:45:20.015Z,1.10
2019-03-08T14:47:52.906Z,0.90
2019-03-08T14:50:23.650Z,1.00
2019-03-08T14:52:55.294Z,0.80
2019-03-08T14:55:26.697Z,1.10
2019-03-08T14:57:59.005Z,1.03
2019-03-08T15:00:30.457Z,0.90
2019-03-08T15:03:01.113Z,1.00
2019-03-08T15:05:31.705Z,0.90
2019-03-08T15:08:02.741Z,0.90
2019-03-08T15:10:39.378Z,1.07
2019-03-08T15:13:06.551Z,0.90
2019-03-08T15:15:37.035Z,0.90
2019-03-08T15:18:08.001Z,0.90
2019-03-08T15:20:38.563Z,1.00
2019-03-08T15:23:17.085Z,1.10
2019-03-08T15:25:49.118Z,0.80
2019-03-08T15:28:19.575Z,0.90
2019-03-08T15:30:50.308Z,0.83
2019-03-08T15:33:20.816Z,1.17
2019-03-08T15:35:51.361Z,0.80
2019-03-08T15:38:21.826Z,1.03
2019-03-08T15:40:52.284Z,1.23
2019-03-08T15:43:22.730Z,1.03
2019-03-08T15:45:53.173Z,1.20
2019-03-08T15:48:24.040Z,1.30
2019-03-08T15:50:54.841Z,1.00
2019-03-08T15:53:26.479Z,1.10
2019-03-08T15:55:57.337Z,1.10
2019-03-08T15:58:27.905Z,1.13
2019-03-08T16:01:17.513Z,1.00
2019-03-08T16:03:47.942Z,1.20
2019-03-08T16:06:19.656Z,0.93
2019-03-08T16:08:50.413Z,0.90
2019-03-08T16:11:21.875Z,1.40
2019-03-08T16:13:53.074Z,1.30
2019-03-08T16:16:24.534Z,0.90
2019-03-08T16:18:56.296Z,0.77
2019-03-08T16:21:26.877Z,0.73
2019-03-08T16:23:57.385Z,0.70
2019-03-08T16:26:28.547Z,0.80
2019-03-08T16:28:59.625Z,0.80
2019-03-08T16:31:35.753Z,0.80
2019-03-08T16:34:07.580Z,0.77
2019-03-08T16:36:59.908Z,0.63
2019-03-08T16:39:48.205Z,1.00
2019-03-08T16:42:36.272Z,0.63
2019-03-08T16:45:27.602Z,0.60
2019-03-08T16:48:17.136Z,0.60
2019-03-08T16:51:12.460Z,0.70
2019-03-08T16:54:00.381Z,0.53
2019-03-08T16:56:48.549Z,0.60
2019-03-08T16:59:40.839Z,0.67
2019-03-08T17:02:39.424Z,0.70
2019-03-08T17:05:21.354Z,0.57
2019-03-08T17:08:16.905Z,1.00
2019-03-08T17:10:57.185Z,0.90
2019-03-08T17:13:34.124Z,0.90
2019-03-08T17:16:23.602Z,0.70
2019-03-08T17:19:08.977Z,0.80
2019-03-08T17:21:56.717Z,0.93
2019-03-08T17:24:42.869Z,0.80
2019-03-08T17:27:47.890Z,0.70
2019-03-08T17:30:46.465Z,0.70
2019-03-08T17:33:54.622Z,0.90
2019-03-08T17:36:47.446Z,1.00
2019-03-08T17:39:39.753Z,1.20
2019-03-08T17:42:29.621Z,1.00
2019-03-08T17:45:28.058Z,0.90
2019-03-08T17:48:04.857Z,1.00
2019-03-08T17:51:09.407Z,0.80
2019-03-08T17:54:07.564Z,1.00
2019-03-08T17:56:55.740Z,0.87
2019-03-08T17:59:51.634Z,1.00
2019-03-08T18:02:41.170Z,1.20
2019-03-08T18:05:19.200Z,1.03
2019-03-08T18:07:56.264Z,2.57
2019-03-08T18:10:35.124Z,1.67
2019-03-08T18:13:27.579Z,1.90
2019-03-08T18:16:26.207Z,1.67
2019-03-08T18:19:17.108Z,1.50
2019-03-08T18:22:09.608Z,1.30
2019-03-08T18:24:53.020Z,1.13
2019-03-08T18:27:30.381Z,1.47
2019-03-08T18:30:38.160Z,1.50
2019-03-08T18:33:19.842Z,1.30
2019-03-08T18:36:09.164Z,1.40
2019-03-08T18:39:04.829Z,1.80
2019-03-08T18:42:07.532Z,1.87
2019-03-08T18:44:57.266Z,1.50
2019-03-08T18:47:47.633Z,1.40
